Flight Track Log - Related Links

Times and Time Zones

All times are in EDT time to prevent confusion due to time zone crossing. See the EGF4278 flight status page for this flight to view local times or setup timezone preferences in your user account.

Time Position Orientation Groundspeed Altitude Reporting Facility
EDT Latitude Longitude Course Direction KTS MPH feet Rate Location/Type
Mon 07:09:38 AM 40.0794 -88.2231 333° Northwest 239 275 16,000  Level Chicago Center
Mon 07:10:00 AM 40.2676 -88.4010 323° Northwest  Level FlightAware Approximate
Mon 07:10:39 AM 40.1358 -88.2614 333° Northwest 266 306 5,900  Level Chicago Center
Mon 07:11:00 AM 40.3458 -88.4427 330° Northwest  Level FlightAware Approximate
Mon 07:11:39 AM 40.2039 -88.3097 332° Northwest 273 314 8,500  Level Chicago Center
Mon 07:12:00 AM 40.4217 -88.4942 339° North  Level FlightAware Approximate
Mon 07:12:39 AM 40.2747 -88.3550 334° Northwest 281 323 10,900  Level Chicago Center
Mon 07:13:00 AM 40.5005 -88.5384 337° Northwest  Level FlightAware Approximate
Mon 07:13:40 AM 40.3814 -88.3739 352° North 322 371 12,900  Level Chicago Center
Mon 07:14:00 AM 40.5735 -88.5823 333° Northwest  Level FlightAware Approximate
Mon 07:14:40 AM 40.4753 -88.3908 352° North 339 390 14,800  Level Chicago Center
Mon 07:15:00 AM 40.6452 -88.6301 333° Northwest  Level FlightAware Approximate
Mon 07:15:41 AM 40.5733 -88.4111 351° North 358 412 15,900  Level Chicago Center
Mon 07:16:41 AM 40.6794 -88.4314 352° North 381 438 15,900  Level Chicago Center
Mon 07:17:42 AM 40.7922 -88.4508 353° North 399 459 15,900  Level Chicago Center
Mon 07:18:42 AM 40.9039 -88.4728 352° North 406 467 15,900  Level Chicago Center
Mon 07:19:43 AM 41.0106 -88.4944 351° North 396 456 15,900 -298 Level Chicago Center
Mon 07:20:43 AM 41.1225 -88.5172 351° North 402 463 15,300 -1,240 Descending Chicago Center
Mon 07:21:44 AM 41.2311 -88.5378 352° North 398 458 13,400 -1,721 Descending Chicago Center
Mon 07:22:45 AM 41.3333 -88.5597 351° North 379 436 11,800 -1,190 Descending Chicago Center
Mon 07:23:45 AM 41.4300 -88.5778 352° North 357 411 11,000 -397 Descending Chicago Center
Mon 07:24:46 AM 41.5131 -88.5069 33° Northeast 363 418 11,000  Level Chicago Center
Mon 07:25:46 AM 41.5853 -88.4114 45° Northeast 364 419 11,000  Level Chicago Center
Mon 07:26:47 AM 41.6572 -88.3192 44° Northeast 361 415 11,000  Level Chicago Center
Mon 07:27:48 AM 41.7297 -88.2264 44° Northeast 358 412 11,000 -198 Level Chicago Center
Mon 07:28:48 AM 41.7994 -88.1353 44° Northeast 350 403 10,600 -595 Descending Chicago Center
Mon 07:29:49 AM 41.8725 -88.1092 15° North 295 339 9,800 -978 Descending Chicago Center
Mon 07:30:20 AM 41.9167 -88.1167 353° North 299 344 9,100 -1,121 Descending Chicago TRACON
Mon 07:31:20 AM 42.0000 -88.1333 352° North 297 342 8,100 -933 Descending Chicago TRACON
Mon 07:31:50 AM 42.0236 -88.1486 334° Northwest 277 319 7,700 -989 Descending Chicago Center
Mon 07:32:51 AM 42.0761 -88.2094 319° Northwest 253 291 6,600 -1,230 Descending Chicago Center
Mon 07:33:52 AM 42.1253 -88.2700 318° Northwest 244 281 5,200 -793 Descending Chicago Center
Mon 07:34:52 AM 42.1669 -88.3208 318° Northwest 211 243 5,000 -99 Descending Chicago Center
Mon 07:35:53 AM 42.2208 -88.3372 347° North 219 252 5,000  Level Chicago Center
Mon 07:36:54 AM 42.2528 -88.2803 53° Northeast 216 249 5,000  Level Chicago Center
Mon 07:37:54 AM 42.2311 -88.2164 115° Southeast 192 221 5,000  Level Chicago Center
Mon 07:38:55 AM 42.1975 -88.1661 132° Southeast 187 215 5,000  Level Chicago Center
Mon 07:39:56 AM 42.1586 -88.1244 142° Southeast 180 207 5,000 -446 Level Chicago Center
Mon 07:40:56 AM 42.1208 -88.0803 139° Southeast 180 207 4,100 -900 Descending Chicago Center

Login

Don't have an account? Register now (free) for customized features, flight alerts, and more!